Terminal Aerodrome Forecast
Issued by NWS

Current Version | Previous Version | Graphics & Text | Print | Product List | Glossary On
Versions: 1 2 3 4 5 6 7 8 9 10 11 12 13 14 15 16 17 18 19 20 21
027
FTUS41 KILN 220243 AAA
TAFLUK
TAF AMD
KLUK 220243Z 2203/2224 34009KT P6SM BKN070 OVC110
     FM220500 36014KT P6SM SCT250
     FM221400 04010KT P6SM SKC
     FM222300 04007KT P6SM SCT250=

USA.gov is the U.S. government's official web portal to all federal, state and local government web resources and services.